Time,TemperatureF,DewpointF,PressureIn,WindDirection,WindDirectionDegrees,WindSpeedMPH,WindSpeedGustMPH,Humidity,HourlyPrecipIn,Conditions,Clouds,dailyrainin,SoftwareType,DateUTC
2013-01-19 00:02:00,29.6,16.2,30.43,SW,228,0.0,0.0,57,0.00,,,0.00,Wunderground v.1.15,2013-01-19 07:02:00,
2013-01-19 00:08:00,29.3,15.9,30.43,SW,228,0.0,0.0,57,0.00,,,0.00,Wunderground v.1.15,2013-01-19 07:08:00,
2013-01-19 00:13:00,29.4,16.0,30.43,SW,228,0.0,0.0,57,0.00,,,0.00,Wunderground v.1.15,2013-01-19 07:13:00,
2013-01-19 00:19:00,29.5,16.1,30.43,SW,228,0.0,0.0,57,0.00,,,0.00,Wunderground v.1.15,2013-01-19 07:19:00,
2013-01-19 00:24:00,29.6,16.2,30.43,SW,228,0.0,0.0,57,0.00,,,0.00,Wunderground v.1.15,2013-01-19 07:24:00,
2013-01-19 00:30:00,29.5,16.1,30.43,SW,228,0.0,0.0,57,0.00,,,0.00,Wunderground v.1.15,2013-01-19 07:30:00,
2013-01-19 00:36:00,29.4,16.0,30.43,SW,228,0.0,0.0,57,0.00,,,0.00,Wunderground v.1.15,2013-01-19 07:36:00,
2013-01-19 00:42:00,29.3,15.9,30.43,SW,228,0.0,0.0,57,0.00,,,0.00,Wunderground v.1.15,2013-01-19 07:42:00,
2013-01-19 00:47:00,29.0,15.7,30.43,SW,228,0.0,0.0,57,0.00,,,0.00,Wunderground v.1.15,2013-01-19 07:47:00,
2013-01-19 00:53:00,28.5,15.6,30.43,SW,228,0.0,0.0,58,0.00,,,0.00,Wunderground v.1.15,2013-01-19 07:53:00,
2013-01-19 00:58:00,28.0,15.1,30.43,SW,228,0.0,0.0,58,0.00,,,0.00,Wunderground v.1.15,2013-01-19 07:58:00,
2013-01-19 01:04:00,27.6,15.1,30.44,SW,228,0.0,0.0,59,0.00,,,0.00,Wunderground v.1.15,2013-01-19 08:04:00,
2013-01-19 01:10:00,27.2,14.8,30.44,SW,228,0.0,0.0,59,0.00,,,0.00,Wunderground v.1.15,2013-01-19 08:10:00,
2013-01-19 01:16:00,27.0,15.3,30.44,SW,228,0.0,0.0,61,0.00,,,0.00,Wunderground v.1.15,2013-01-19 08:16:00,
2013-01-19 01:22:00,27.0,15.3,30.44,SW,228,0.0,0.0,61,0.00,,,0.00,Wunderground v.1.15,2013-01-19 08:22:00,
2013-01-19 01:28:00,27.3,15.6,30.44,SW,228,0.0,0.0,61,0.00,,,0.00,Wunderground v.1.15,2013-01-19 08:28:00,
2013-01-19 01:33:00,27.4,15.7,30.44,SW,228,0.0,0.0,61,0.00,,,0.00,Wunderground v.1.15,2013-01-19 08:33:00,
2013-01-19 01:39:00,27.6,15.9,30.44,SW,228,0.0,0.0,61,0.00,,,0.00,Wunderground v.1.15,2013-01-19 08:39:00,
2013-01-19 01:44:00,27.8,15.7,30.44,SW,228,0.0,0.0,60,0.00,,,0.00,Wunderground v.1.15,2013-01-19 08:44:00,
2013-01-19 01:50:00,27.7,15.6,30.44,SW,228,0.0,0.0,60,0.00,,,0.00,Wunderground v.1.15,2013-01-19 08:50:00,
2013-01-19 01:56:00,27.2,14.4,30.43,SW,228,0.0,0.0,58,0.00,,,0.00,Wunderground v.1.15,2013-01-19 08:56:00,
2013-01-19 02:01:00,26.7,14.3,30.43,SW,228,0.0,0.0,59,0.00,,,0.00,Wunderground v.1.15,2013-01-19 09:01:00,
2013-01-19 02:07:00,26.3,14.3,30.44,SW,228,0.0,0.0,60,0.00,,,0.00,Wunderground v.1.15,2013-01-19 09:07:00,
2013-01-19 02:13:00,26.3,15.0,30.44,SW,228,0.0,0.0,62,0.00,,,0.00,Wunderground v.1.15,2013-01-19 09:13:00,
2013-01-19 02:19:00,26.7,15.8,30.44,SW,228,0.0,0.0,63,0.00,,,0.00,Wunderground v.1.15,2013-01-19 09:19:00,
2013-01-19 02:25:00,27.2,15.9,30.44,SW,229,0.0,0.0,62,0.00,,,0.00,Wunderground v.1.15,2013-01-19 09:25:00,
2013-01-19 02:30:00,28.0,16.3,30.44,West,265,0.0,0.0,61,0.00,,,0.00,Wunderground v.1.15,2013-01-19 09:30:00,
2013-01-19 02:36:00,28.9,16.4,30.44,WNW,284,0.0,0.0,59,0.00,,,0.00,Wunderground v.1.15,2013-01-19 09:36:00,
2013-01-19 02:41:00,29.3,16.3,30.44,WNW,284,0.0,0.0,58,0.00,,,0.00,Wunderground v.1.15,2013-01-19 09:41:00,
2013-01-19 02:47:00,29.5,16.1,30.44,WNW,284,0.0,0.0,57,0.00,,,0.00,Wunderground v.1.15,2013-01-19 09:47:00,
2013-01-19 02:53:00,28.7,14.6,30.44,WNW,284,0.0,0.0,55,0.00,,,0.00,Wunderground v.1.15,2013-01-19 09:53:00,
2013-01-19 02:59:00,27.8,14.5,30.43,WNW,284,0.0,0.0,57,0.00,,,0.00,Wunderground v.1.15,2013-01-19 09:59:00,
2013-01-19 03:04:00,27.3,14.8,30.44,WNW,284,0.0,0.0,59,0.00,,,0.00,Wunderground v.1.15,2013-01-19 10:04:00,
2013-01-19 03:10:00,27.0,15.3,30.43,WNW,284,0.0,0.0,61,0.00,,,0.00,Wunderground v.1.15,2013-01-19 10:10:00,
2013-01-19 03:16:00,27.0,15.3,30.43,WNW,284,0.0,0.0,61,0.00,,,0.00,Wunderground v.1.15,2013-01-19 10:16:00,
2013-01-19 03:21:00,27.0,15.3,30.44,WNW,284,0.0,0.0,61,0.00,,,0.00,Wunderground v.1.15,2013-01-19 10:21:00,
2013-01-19 03:27:00,27.0,15.3,30.44,WNW,284,0.0,0.0,61,0.00,,,0.00,Wunderground v.1.15,2013-01-19 10:27:00,
2013-01-19 03:33:00,26.7,15.0,30.44,WNW,284,0.0,0.0,61,0.00,,,0.00,Wunderground v.1.15,2013-01-19 10:33:00,
2013-01-19 03:38:00,26.5,14.9,30.44,WNW,284,0.0,0.0,61,0.00,,,0.00,Wunderground v.1.15,2013-01-19 10:38:00,
2013-01-19 03:44:00,26.1,14.8,30.44,WNW,284,0.0,0.0,62,0.00,,,0.00,Wunderground v.1.15,2013-01-19 10:44:00,
2013-01-19 03:50:00,25.9,15.0,30.43,WNW,284,0.0,0.0,63,0.00,,,0.00,Wunderground v.1.15,2013-01-19 10:50:00,
2013-01-19 03:56:00,25.4,14.5,30.44,WNW,284,0.0,0.0,63,0.00,,,0.00,Wunderground v.1.15,2013-01-19 10:56:00,
2013-01-19 04:01:00,24.9,13.7,30.44,WNW,284,0.0,0.0,62,0.00,,,0.00,Wunderground v.1.15,2013-01-19 11:01:00,
2013-01-19 04:07:00,24.5,14.1,30.44,WNW,284,0.0,0.0,64,0.00,,,0.00,Wunderground v.1.15,2013-01-19 11:07:00,
2013-01-19 04:13:00,24.4,14.3,30.44,WNW,284,0.0,0.0,65,0.00,,,0.00,Wunderground v.1.15,2013-01-19 11:13:00,
2013-01-19 05:48:00,24.6,13.8,30.46,WNW,284,0.0,0.0,63,0.00,,,0.00,Wunderground v.1.15,2013-01-19 12:48:00,
2013-01-19 05:49:00,24.5,13.7,30.46,WNW,284,0.0,0.0,63,0.00,,,0.00,Wunderground v.1.15,2013-01-19 12:49:00,
2013-01-19 05:50:00,24.4,14.0,30.46,WNW,284,0.0,0.0,64,0.00,,,0.00,Wunderground v.1.15,2013-01-19 12:50:00,
2013-01-19 05:54:00,24.2,13.8,30.46,WNW,284,0.0,0.0,64,0.00,,,0.00,Wunderground v.1.15,2013-01-19 12:54:00,
2013-01-19 05:59:00,23.8,13.4,30.46,WNW,284,0.0,0.0,64,0.00,,,0.00,Wunderground v.1.15,2013-01-19 12:59:00,
2013-01-19 06:05:00,23.6,13.5,30.47,WNW,284,0.0,0.0,65,0.00,,,0.00,Wunderground v.1.15,2013-01-19 13:05:00,
2013-01-19 06:10:00,23.5,13.5,30.47,WNW,284,0.0,0.0,65,0.00,,,0.00,Wunderground v.1.15,2013-01-19 13:10:00,
2013-01-19 06:16:00,23.6,14.2,30.47,WNW,284,0.0,0.0,67,0.00,,,0.00,Wunderground v.1.15,2013-01-19 13:16:00,
2013-01-19 06:22:00,24.0,13.9,30.47,WNW,284,0.0,0.0,65,0.00,,,0.00,Wunderground v.1.15,2013-01-19 13:22:00,
2013-01-19 06:28:00,24.3,14.2,30.47,WNW,284,0.0,0.0,65,0.00,,,0.00,Wunderground v.1.15,2013-01-19 13:28:00,
2013-01-19 06:34:00,24.3,14.2,30.47,WNW,284,0.0,0.0,65,0.00,,,0.00,Wunderground v.1.15,2013-01-19 13:34:00,
2013-01-19 06:40:00,24.4,14.3,30.48,WNW,284,0.0,0.0,65,0.00,,,0.00,Wunderground v.1.15,2013-01-19 13:40:00,
2013-01-19 06:45:00,24.4,14.0,30.48,WNW,284,0.0,0.0,64,0.00,,,0.00,Wunderground v.1.15,2013-01-19 13:45:00,
2013-01-19 06:51:00,24.2,13.8,30.48,WNW,284,0.0,0.0,64,0.00,,,0.00,Wunderground v.1.15,2013-01-19 13:51:00,
2013-01-19 06:56:00,23.9,13.5,30.48,WNW,284,0.0,0.0,64,0.00,,,0.00,Wunderground v.1.15,2013-01-19 13:56:00,
2013-01-19 07:02:00,23.6,13.5,30.48,WNW,284,0.0,0.0,65,0.00,,,0.00,Wunderground v.1.15,2013-01-19 14:02:00,
2013-01-19 07:07:00,23.6,13.9,30.48,WNW,284,0.0,0.0,66,0.00,,,0.00,Wunderground v.1.15,2013-01-19 14:07:00,
2013-01-19 07:13:00,23.9,14.2,30.49,WNW,284,0.0,0.0,66,0.00,,,0.00,Wunderground v.1.15,2013-01-19 14:13:00,
2013-01-19 07:19:00,23.9,13.1,30.49,WNW,284,0.0,0.0,63,0.00,,,0.00,Wunderground v.1.15,2013-01-19 14:19:00,
2013-01-19 07:24:00,23.2,12.8,30.50,WNW,284,0.0,0.0,64,0.00,,,0.00,Wunderground v.1.15,2013-01-19 14:24:00,
2013-01-19 07:30:00,23.2,13.5,30.50,WNW,284,0.0,0.0,66,0.00,,,0.00,Wunderground v.1.15,2013-01-19 14:30:00,
2013-01-19 07:36:00,23.6,13.9,30.50,WNW,284,0.0,0.0,66,0.00,,,0.00,Wunderground v.1.15,2013-01-19 14:36:00,
2013-01-19 07:42:00,24.3,14.6,30.51,WNW,284,0.0,0.0,66,0.00,,,0.00,Wunderground v.1.15,2013-01-19 14:42:00,
2013-01-19 07:48:00,25.1,15.0,30.51,WNW,284,0.0,0.0,65,0.00,,,0.00,Wunderground v.1.15,2013-01-19 14:48:00,
2013-01-19 07:54:00,26.0,15.5,30.51,WNW,284,0.0,0.0,64,0.00,,,0.00,Wunderground v.1.15,2013-01-19 14:54:00,
2013-01-19 08:00:00,27.0,16.1,30.51,WNW,284,0.0,0.0,63,0.00,,,0.00,Wunderground v.1.15,2013-01-19 15:00:00,
2013-01-19 08:05:00,28.1,16.7,30.51,WNW,284,0.0,0.0,62,0.00,,,0.00,Wunderground v.1.15,2013-01-19 15:05:00,
2013-01-19 08:11:00,29.6,17.0,30.51,WNW,284,0.0,0.0,59,0.00,,,0.00,Wunderground v.1.15,2013-01-19 15:11:00,
2013-01-19 08:17:00,31.0,17.5,30.51,WNW,284,0.0,0.0,57,0.00,,,0.00,Wunderground v.1.15,2013-01-19 15:17:00,
2013-01-19 08:23:00,32.2,18.2,30.51,WNW,284,0.0,0.0,56,0.00,,,0.00,Wunderground v.1.15,2013-01-19 15:23:00,
2013-01-19 08:29:00,33.4,18.5,30.51,WNW,284,0.0,0.0,54,0.00,,,0.00,Wunderground v.1.15,2013-01-19 15:29:00,
2013-01-19 08:35:00,34.7,18.4,30.52,WNW,284,0.0,0.0,51,0.00,,,0.00,Wunderground v.1.15,2013-01-19 15:35:00,
2013-01-19 08:42:00,36.1,19.2,30.52,WNW,284,0.0,0.0,50,0.00,,,0.00,Wunderground v.1.15,2013-01-19 15:42:00,
2013-01-19 08:47:00,37.4,19.0,30.52,NNW,348,0.0,1.0,47,0.00,,,0.00,Wunderground v.1.15,2013-01-19 15:47:00,
2013-01-19 08:53:00,38.8,19.2,30.53,NNW,342,1.0,3.0,45,0.00,,,0.00,Wunderground v.1.15,2013-01-19 15:53:00,
2013-01-19 08:59:00,39.6,18.9,30.53,NNW,333,2.0,3.0,43,0.00,,,0.00,Wunderground v.1.15,2013-01-19 15:59:00,
2013-01-19 09:04:00,40.2,18.9,30.53,North,9,2.0,3.0,42,0.00,,,0.00,Wunderground v.1.15,2013-01-19 16:04:00,
2013-01-19 09:10:00,40.9,19.5,30.54,NW,325,2.0,2.0,42,0.00,,,0.00,Wunderground v.1.15,2013-01-19 16:10:00,
2013-01-19 09:16:00,41.8,19.8,30.54,NNW,332,1.0,5.0,41,0.00,,,0.00,Wunderground v.1.15,2013-01-19 16:16:00,
2013-01-19 09:22:00,42.5,19.3,30.54,NW,314,2.0,4.0,39,0.00,,,0.00,Wunderground v.1.15,2013-01-19 16:22:00,
2013-01-19 09:27:00,42.9,19.6,30.54,NNW,337,2.0,4.0,39,0.00,,,0.00,Wunderground v.1.15,2013-01-19 16:27:00,
2013-01-19 09:33:00,43.6,19.6,30.55,North,5,1.0,8.0,38,0.00,,,0.00,Wunderground v.1.15,2013-01-19 16:33:00,
2013-01-19 09:39:00,44.1,20.1,30.55,NW,318,1.0,8.0,38,0.00,,,0.00,Wunderground v.1.15,2013-01-19 16:39:00,
2013-01-19 09:45:00,44.5,19.2,30.55,NW,318,0.0,1.0,36,0.00,,,0.00,Wunderground v.1.15,2013-01-19 16:45:00,
2013-01-19 09:50:00,44.9,19.5,30.55,NW,312,0.0,1.0,36,0.00,,,0.00,Wunderground v.1.15,2013-01-19 16:50:00,
2013-01-19 09:56:00,45.0,19.6,30.55,NW,320,1.0,4.0,36,0.00,,,0.00,Wunderground v.1.15,2013-01-19 16:56:00,
2013-01-19 10:01:00,45.3,19.2,30.55,NW,313,2.0,2.0,35,0.00,,,0.00,Wunderground v.1.15,2013-01-19 17:01:00,
2013-01-19 10:07:00,45.9,19.8,30.55,WNW,291,2.0,5.0,35,0.00,,,0.00,Wunderground v.1.15,2013-01-19 17:07:00,
2013-01-19 10:12:00,46.0,19.8,30.55,WNW,301,1.0,2.0,35,0.00,,,0.00,Wunderground v.1.15,2013-01-19 17:12:00,
2013-01-19 10:18:00,46.5,19.6,30.54,NW,318,1.0,5.0,34,0.00,,,0.00,Wunderground v.1.15,2013-01-19 17:18:00,
2013-01-19 10:24:00,47.0,20.0,30.54,NW,305,1.0,2.0,34,0.00,,,0.00,Wunderground v.1.15,2013-01-19 17:24:00,
2013-01-19 10:30:00,47.9,20.1,30.53,NNW,340,1.0,1.0,33,0.00,,,0.00,Wunderground v.1.15,2013-01-19 17:30:00,
2013-01-19 10:35:00,48.5,19.9,30.53,NNW,327,1.0,7.0,32,0.00,,,0.00,Wunderground v.1.15,2013-01-19 17:35:00,
2013-01-19 10:41:00,48.7,20.1,30.54,WNW,289,1.0,3.0,32,0.00,,,0.00,Wunderground v.1.15,2013-01-19 17:41:00,
2013-01-19 10:46:00,49.0,20.4,30.53,NW,322,1.0,3.0,32,0.00,,,0.00,Wunderground v.1.15,2013-01-19 17:46:00,
2013-01-19 10:52:00,49.4,20.0,30.52,NNW,337,1.0,1.0,31,0.00,,,0.00,Wunderground v.1.15,2013-01-19 17:52:00,
2013-01-19 10:58:00,49.9,20.4,30.52,NNW,332,1.0,1.0,31,0.00,,,0.00,Wunderground v.1.15,2013-01-19 17:58:00,
2013-01-19 11:03:00,50.5,20.9,30.51,NNW,327,0.0,1.0,31,0.00,,,0.00,Wunderground v.1.15,2013-01-19 18:03:00,
2013-01-19 11:08:00,50.8,20.4,30.51,West,278,0.0,1.0,30,0.00,,,0.00,Wunderground v.1.15,2013-01-19 18:08:00,
2013-01-19 11:14:00,51.2,20.8,30.51,NW,325,1.0,3.0,30,0.00,,,0.00,Wunderground v.1.15,2013-01-19 18:14:00,
2013-01-19 11:19:00,51.6,21.1,30.51,NW,309,1.0,6.0,30,0.00,,,0.00,Wunderground v.1.15,2013-01-19 18:19:00,
2013-01-19 11:24:00,52.0,20.7,30.51,NNW,331,1.0,1.0,29,0.00,,,0.00,Wunderground v.1.15,2013-01-19 18:24:00,
2013-01-19 11:30:00,52.4,21.0,30.50,NNW,342,2.0,2.0,29,0.00,,,0.00,Wunderground v.1.15,2013-01-19 18:30:00,
2013-01-19 11:37:00,53.1,20.8,30.50,North,355,2.0,5.0,28,0.00,,,0.00,Wunderground v.1.15,2013-01-19 18:37:00,
2013-01-19 11:43:00,53.6,21.2,30.49,WNW,283,1.0,5.0,28,0.00,,,0.00,Wunderground v.1.15,2013-01-19 18:43:00,
2013-01-19 11:48:00,54.1,20.8,30.49,NW,323,1.0,5.0,27,0.00,,,0.00,Wunderground v.1.15,2013-01-19 18:48:00,
2013-01-19 11:54:00,54.3,21.0,30.48,NNW,333,1.0,1.0,27,0.00,,,0.00,Wunderground v.1.15,2013-01-19 18:54:00,
2013-01-19 11:59:00,54.8,20.5,30.48,North,349,0.0,1.0,26,0.00,,,0.00,Wunderground v.1.15,2013-01-19 18:59:00,
2013-01-19 12:04:00,55.0,20.7,30.47,NNW,332,1.0,4.0,26,0.00,,,0.00,Wunderground v.1.15,2013-01-19 19:04:00,
2013-01-19 12:12:00,55.4,21.0,30.47,NW,321,1.0,2.0,26,0.00,,,0.00,Wunderground v.1.15,2013-01-19 19:12:00,
2013-01-19 12:17:00,55.8,21.4,30.46,West,273,1.0,2.0,26,0.00,,,0.00,Wunderground v.1.15,2013-01-19 19:17:00,
2013-01-19 12:22:00,56.5,21.1,30.45,NW,304,1.0,1.0,25,0.00,,,0.00,Wunderground v.1.15,2013-01-19 19:22:00,
2013-01-19 12:28:00,56.8,21.3,30.45,WNW,290,1.0,3.0,25,0.00,,,0.00,Wunderground v.1.15,2013-01-19 19:28:00,
2013-01-19 12:33:00,56.9,21.4,30.44,West,281,1.0,1.0,25,0.00,,,0.00,Wunderground v.1.15,2013-01-19 19:33:00,
2013-01-19 12:39:00,57.3,21.7,30.44,West,272,2.0,7.0,25,0.00,,,0.00,Wunderground v.1.15,2013-01-19 19:39:00,
2013-01-19 12:44:00,57.3,21.7,30.44,NW,319,4.0,5.0,25,0.00,,,0.00,Wunderground v.1.15,2013-01-19 19:44:00,
2013-01-19 12:49:00,57.7,21.1,30.44,WNW,282,2.0,5.0,24,0.00,,,0.00,Wunderground v.1.15,2013-01-19 19:49:00,
2013-01-19 12:55:00,58.3,21.6,30.44,WNW,290,1.0,2.0,24,0.00,,,0.00,Wunderground v.1.15,2013-01-19 19:55:00,
2013-01-19 13:00:00,58.4,21.7,30.43,WNW,284,1.0,2.0,24,0.00,,,0.00,Wunderground v.1.15,2013-01-19 20:00:00,
2013-01-19 13:06:00,58.9,22.1,30.43,West,273,1.0,4.0,24,0.00,,,0.00,Wunderground v.1.15,2013-01-19 20:06:00,
2013-01-19 13:12:00,58.8,21.0,30.43,WSW,257,2.0,4.0,23,0.00,,,0.00,Wunderground v.1.15,2013-01-19 20:12:00,
2013-01-19 13:18:00,59.0,21.2,30.43,NW,322,2.0,4.0,23,0.00,,,0.00,Wunderground v.1.15,2013-01-19 20:18:00,
2013-01-19 13:24:00,59.2,21.4,30.43,West,279,1.0,4.0,23,0.00,,,0.00,Wunderground v.1.15,2013-01-19 20:24:00,
2013-01-19 13:30:00,59.3,21.5,30.42,WNW,284,2.0,2.0,23,0.00,,,0.00,Wunderground v.1.15,2013-01-19 20:30:00,
2013-01-19 13:35:00,59.4,21.5,30.42,West,272,1.0,3.0,23,0.00,,,0.00,Wunderground v.1.15,2013-01-19 20:35:00,
2013-01-19 13:42:00,59.6,21.7,30.42,West,275,1.0,1.0,23,0.00,,,0.00,Wunderground v.1.15,2013-01-19 20:42:00,
2013-01-19 13:48:00,59.9,20.9,30.41,West,268,1.0,4.0,22,0.00,,,0.00,Wunderground v.1.15,2013-01-19 20:48:00,
2013-01-19 13:54:00,60.0,21.0,30.41,NNW,329,1.0,1.0,22,0.00,,,0.00,Wunderground v.1.15,2013-01-19 20:54:00,
2013-01-19 13:59:00,60.8,21.7,30.41,NW,319,0.0,1.0,22,0.00,,,0.00,Wunderground v.1.15,2013-01-19 20:59:00,
2013-01-19 14:05:00,61.3,21.0,30.41,NW,320,1.0,1.0,21,0.00,,,0.00,Wunderground v.1.15,2013-01-19 21:05:00,
2013-01-19 14:10:00,61.4,21.1,30.41,WNW,288,1.0,1.0,21,0.00,,,0.00,Wunderground v.1.15,2013-01-19 21:10:00,
2013-01-19 14:18:00,61.5,21.2,30.40,NNW,339,1.0,2.0,21,0.00,,,0.00,Wunderground v.1.15,2013-01-19 21:18:00,
2013-01-19 14:23:00,61.8,21.4,30.40,West,272,1.0,6.0,21,0.00,,,0.00,Wunderground v.1.15,2013-01-19 21:23:00,
2013-01-19 14:29:00,61.6,21.2,30.40,West,275,1.0,6.0,21,0.00,,,0.00,Wunderground v.1.15,2013-01-19 21:29:00,
2013-01-19 14:34:00,62.0,20.4,30.40,WNW,302,1.0,2.0,20,0.00,,,0.00,Wunderground v.1.15,2013-01-19 21:34:00,
2013-01-19 14:40:00,62.3,20.7,30.40,WNW,296,2.0,2.0,20,0.00,,,0.00,Wunderground v.1.15,2013-01-19 21:40:00,
2013-01-19 14:45:00,62.6,20.9,30.40,WNW,303,1.0,2.0,20,0.00,,,0.00,Wunderground v.1.15,2013-01-19 21:45:00,
2013-01-19 14:51:00,63.0,20.0,30.39,NNW,329,1.0,1.0,19,0.00,,,0.00,Wunderground v.1.15,2013-01-19 21:51:00,
2013-01-19 14:56:00,63.1,20.1,30.39,West,267,1.0,3.0,19,0.00,,,0.00,Wunderground v.1.15,2013-01-19 21:56:00,
2013-01-19 15:02:00,63.4,19.1,30.39,West,278,1.0,4.0,18,0.00,,,0.00,Wunderground v.1.15,2013-01-19 22:02:00,
2013-01-19 15:08:00,63.4,19.1,30.39,NW,324,1.0,4.0,18,0.00,,,0.00,Wunderground v.1.15,2013-01-19 22:08:00,
2013-01-19 15:13:00,63.6,19.3,30.40,NE,35,1.0,1.0,18,0.00,,,0.00,Wunderground v.1.15,2013-01-19 22:13:00,
2013-01-19 15:18:00,63.6,19.3,30.39,NW,315,1.0,1.0,18,0.00,,,0.00,Wunderground v.1.15,2013-01-19 22:18:00,
2013-01-19 15:23:00,63.6,19.3,30.39,WNW,286,1.0,1.0,18,0.00,,,0.00,Wunderground v.1.15,2013-01-19 22:23:00,
2013-01-19 15:29:00,63.8,19.4,30.39,NNW,332,1.0,1.0,18,0.00,,,0.00,Wunderground v.1.15,2013-01-19 22:29:00,
2013-01-19 15:34:00,63.9,19.5,30.39,West,275,1.0,4.0,18,0.00,,,0.00,Wunderground v.1.15,2013-01-19 22:34:00,
2013-01-19 15:40:00,63.8,19.4,30.39,NNE,21,1.0,1.0,18,0.00,,,0.00,Wunderground v.1.15,2013-01-19 22:40:00,
2013-01-19 15:45:00,63.7,19.3,30.39,North,360,1.0,1.0,18,0.00,,,0.00,Wunderground v.1.15,2013-01-19 22:45:00,
2013-01-19 15:50:00,63.8,19.4,30.39,NNW,338,1.0,1.0,18,0.00,,,0.00,Wunderground v.1.15,2013-01-19 22:50:00,
2013-01-19 15:57:00,64.1,19.7,30.39,NNW,333,0.0,1.0,18,0.00,,,0.00,Wunderground v.1.15,2013-01-19 22:57:00,
2013-01-19 16:04:00,64.1,19.7,30.39,North,360,1.0,1.0,18,0.00,,,0.00,Wunderground v.1.15,2013-01-19 23:04:00,
2013-01-19 16:09:00,64.2,19.8,30.38,WNW,303,1.0,1.0,18,0.00,,,0.00,Wunderground v.1.15,2013-01-19 23:09:00,
2013-01-19 16:14:00,64.3,18.5,30.38,NNW,346,1.0,2.0,17,0.00,,,0.00,Wunderground v.1.15,2013-01-19 23:14:00,
2013-01-19 16:20:00,64.1,18.3,30.38,NNW,339,1.0,1.0,17,0.00,,,0.00,Wunderground v.1.15,2013-01-19 23:20:00,
2013-01-19 16:25:00,64.2,17.0,30.38,NNW,338,0.0,1.0,16,0.00,,,0.00,Wunderground v.1.15,2013-01-19 23:25:00,
2013-01-19 16:30:00,64.3,17.1,30.38,WNW,285,1.0,1.0,16,0.00,,,0.00,Wunderground v.1.15,2013-01-19 23:30:00,
2013-01-19 16:36:00,64.2,17.0,30.38,NW,308,1.0,2.0,16,0.00,,,0.00,Wunderground v.1.15,2013-01-19 23:36:00,
2013-01-19 16:41:00,64.2,17.0,30.38,WNW,293,1.0,1.0,16,0.00,,,0.00,Wunderground v.1.15,2013-01-19 23:41:00,
2013-01-19 16:47:00,64.0,18.3,30.38,NW,313,0.0,1.0,17,0.00,,,0.00,Wunderground v.1.15,2013-01-19 23:47:00,
2013-01-19 16:55:00,63.7,18.0,30.38,North,355,0.0,1.0,17,0.00,,,0.00,Wunderground v.1.15,2013-01-19 23:55:00,
2013-01-19 17:01:00,63.4,17.8,30.38,North,350,0.0,0.0,17,0.00,,,0.00,Wunderground v.1.15,2013-01-20 00:01:00,
2013-01-19 17:07:00,62.8,17.3,30.38,North,350,0.0,1.0,17,0.00,,,0.00,Wunderground v.1.15,2013-01-20 00:07:00,
2013-01-19 17:12:00,62.2,16.8,30.38,North,350,0.0,0.0,17,0.00,,,0.00,Wunderground v.1.15,2013-01-20 00:12:00,
2013-01-19 17:18:00,61.6,17.6,30.39,North,355,0.0,1.0,18,0.00,,,0.00,Wunderground v.1.15,2013-01-20 00:18:00,
2013-01-19 17:23:00,61.1,17.2,30.39,North,355,0.0,1.0,18,0.00,,,0.00,Wunderground v.1.15,2013-01-20 00:23:00,
2013-01-19 17:29:00,60.3,16.6,30.39,North,355,0.0,1.0,18,0.00,,,0.00,Wunderground v.1.15,2013-01-20 00:29:00,
2013-01-19 17:35:00,59.6,17.2,30.39,North,355,0.0,1.0,19,0.00,,,0.00,Wunderground v.1.15,2013-01-20 00:35:00,
2013-01-19 17:43:00,58.7,16.5,30.39,North,355,0.0,0.0,19,0.00,,,0.00,Wunderground v.1.15,2013-01-20 00:43:00,
2013-01-19 17:48:00,58.2,17.3,30.39,North,355,0.0,1.0,20,0.00,,,0.00,Wunderground v.1.15,2013-01-20 00:48:00,
2013-01-19 17:53:00,57.7,16.8,30.39,North,355,0.0,0.0,20,0.00,,,0.00,Wunderground v.1.15,2013-01-20 00:53:00,
2013-01-19 17:59:00,57.0,17.4,30.39,North,355,0.0,0.0,21,0.00,,,0.00,Wunderground v.1.15,2013-01-20 00:59:00,
2013-01-19 18:05:00,56.3,16.8,30.40,North,355,0.0,0.0,21,0.00,,,0.00,Wunderground v.1.15,2013-01-20 01:05:00,
2013-01-19 18:11:00,55.4,17.1,30.40,North,355,0.0,0.0,22,0.00,,,0.00,Wunderground v.1.15,2013-01-20 01:11:00,
2013-01-19 18:17:00,54.9,16.7,30.40,North,355,0.0,0.0,22,0.00,,,0.00,Wunderground v.1.15,2013-01-20 01:17:00,
2013-01-19 18:23:00,54.4,17.3,30.41,North,355,0.0,0.0,23,0.00,,,0.00,Wunderground v.1.15,2013-01-20 01:23:00,
2013-01-19 18:28:00,54.1,17.1,30.41,North,355,0.0,0.0,23,0.00,,,0.00,Wunderground v.1.15,2013-01-20 01:28:00,
2013-01-19 18:33:00,53.7,16.7,30.41,North,355,0.0,0.0,23,0.00,,,0.00,Wunderground v.1.15,2013-01-20 01:33:00,
2013-01-19 18:39:00,53.1,17.2,30.41,North,355,0.0,0.0,24,0.00,,,0.00,Wunderground v.1.15,2013-01-20 01:39:00,
2013-01-19 18:45:00,52.4,16.6,30.41,North,355,0.0,0.0,24,0.00,,,0.00,Wunderground v.1.15,2013-01-20 01:45:00,
2013-01-19 18:50:00,51.7,17.0,30.41,North,355,0.0,0.0,25,0.00,,,0.00,Wunderground v.1.15,2013-01-20 01:50:00,
2013-01-19 18:55:00,50.8,17.1,30.42,North,355,0.0,0.0,26,0.00,,,0.00,Wunderground v.1.15,2013-01-20 01:55:00,
2013-01-19 19:01:00,50.0,16.4,30.42,North,355,0.0,0.0,26,0.00,,,0.00,Wunderground v.1.15,2013-01-20 02:01:00,
2013-01-19 19:07:00,49.4,16.8,30.42,North,355,0.0,0.0,27,0.00,,,0.00,Wunderground v.1.15,2013-01-20 02:07:00,
2013-01-19 19:12:00,48.8,16.2,30.42,North,355,0.0,0.0,27,0.00,,,0.00,Wunderground v.1.15,2013-01-20 02:12:00,
2013-01-19 19:18:00,48.1,16.5,30.42,North,355,0.0,0.0,28,0.00,,,0.00,Wunderground v.1.15,2013-01-20 02:18:00,
2013-01-19 19:23:00,47.6,16.1,30.43,North,355,0.0,0.0,28,0.00,,,0.00,Wunderground v.1.15,2013-01-20 02:23:00,
2013-01-19 19:29:00,47.2,16.5,30.43,North,355,0.0,0.0,29,0.00,,,0.00,Wunderground v.1.15,2013-01-20 02:29:00,
2013-01-19 19:34:00,47.2,16.5,30.43,North,355,0.0,0.0,29,0.00,,,0.00,Wunderground v.1.15,2013-01-20 02:34:00,
2013-01-19 19:39:00,47.6,16.1,30.43,North,355,0.0,0.0,28,0.00,,,0.00,Wunderground v.1.15,2013-01-20 02:39:00,
2013-01-19 19:45:00,47.7,16.9,30.43,North,355,0.0,0.0,29,0.00,,,0.00,Wunderground v.1.15,2013-01-20 02:45:00,
2013-01-19 19:50:00,47.0,16.3,30.43,North,355,0.0,0.0,29,0.00,,,0.00,Wunderground v.1.15,2013-01-20 02:50:00,
2013-01-19 19:55:00,46.1,15.6,30.44,North,355,0.0,0.0,29,0.00,,,0.00,Wunderground v.1.15,2013-01-20 02:55:00,
2013-01-19 20:01:00,45.3,15.6,30.44,North,355,0.0,0.0,30,0.00,,,0.00,Wunderground v.1.15,2013-01-20 03:01:00,
2013-01-19 20:07:00,44.9,15.3,30.45,North,355,0.0,0.0,30,0.00,,,0.00,Wunderground v.1.15,2013-01-20 03:07:00,
2013-01-19 20:12:00,44.5,14.9,30.45,North,355,0.0,0.0,30,0.00,,,0.00,Wunderground v.1.15,2013-01-20 03:12:00,
2013-01-19 20:18:00,44.1,15.3,30.45,North,355,0.0,0.0,31,0.00,,,0.00,Wunderground v.1.15,2013-01-20 03:18:00,
2013-01-19 20:23:00,43.7,15.0,30.45,North,355,0.0,0.0,31,0.00,,,0.00,Wunderground v.1.15,2013-01-20 03:23:00,
2013-01-19 20:28:00,43.5,14.8,30.46,North,355,0.0,0.0,31,0.00,,,0.00,Wunderground v.1.15,2013-01-20 03:28:00,
2013-01-19 20:34:00,42.6,14.8,30.46,North,355,0.0,0.0,32,0.00,,,0.00,Wunderground v.1.15,2013-01-20 03:34:00,
2013-01-19 20:39:00,41.9,14.8,30.46,North,355,0.0,0.0,33,0.00,,,0.00,Wunderground v.1.15,2013-01-20 03:39:00,
2013-01-19 20:44:00,42.4,14.6,30.46,North,355,0.0,0.0,32,0.00,,,0.00,Wunderground v.1.15,2013-01-20 03:44:00,
2013-01-19 20:49:00,42.8,14.2,30.46,North,355,0.0,0.0,31,0.00,,,0.00,Wunderground v.1.15,2013-01-20 03:49:00,
2013-01-19 20:55:00,42.4,14.6,30.46,North,355,1.0,2.0,32,0.00,,,0.00,Wunderground v.1.15,2013-01-20 03:55:00,
2013-01-19 21:00:00,41.5,13.8,30.46,North,355,1.0,1.0,32,0.00,,,0.00,Wunderground v.1.15,2013-01-20 04:00:00,
2013-01-19 21:06:00,41.1,13.4,30.47,North,355,0.0,1.0,32,0.00,,,0.00,Wunderground v.1.15,2013-01-20 04:06:00,
2013-01-19 21:11:00,41.5,13.8,30.46,North,355,0.0,0.0,32,0.00,,,0.00,Wunderground v.1.15,2013-01-20 04:11:00,
2013-01-19 21:16:00,42.3,13.8,30.46,North,355,0.0,0.0,31,0.00,,,0.00,Wunderground v.1.15,2013-01-20 04:16:00,
2013-01-19 21:22:00,42.7,14.1,30.46,North,355,0.0,0.0,31,0.00,,,0.00,Wunderground v.1.15,2013-01-20 04:22:00,
2013-01-19 21:27:00,42.6,13.3,30.46,North,355,0.0,0.0,30,0.00,,,0.00,Wunderground v.1.15,2013-01-20 04:27:00,
2013-01-19 21:32:00,42.0,12.8,30.46,North,355,0.0,0.0,30,0.00,,,0.00,Wunderground v.1.15,2013-01-20 04:32:00,
2013-01-19 21:38:00,41.6,13.2,30.47,North,355,0.0,0.0,31,0.00,,,0.00,Wunderground v.1.15,2013-01-20 04:38:00,
2013-01-19 21:44:00,41.6,13.2,30.47,North,355,0.0,0.0,31,0.00,,,0.00,Wunderground v.1.15,2013-01-20 04:44:00,
2013-01-19 21:49:00,40.6,13.0,30.47,North,355,0.0,0.0,32,0.00,,,0.00,Wunderground v.1.15,2013-01-20 04:49:00,
2013-01-19 21:55:00,40.1,12.6,30.47,North,355,0.0,0.0,32,0.00,,,0.00,Wunderground v.1.15,2013-01-20 04:55:00,
2013-01-19 22:01:00,39.8,13.0,30.47,North,355,0.0,0.0,33,0.00,,,0.00,Wunderground v.1.15,2013-01-20 05:01:00,
2013-01-19 22:03:00,39.6,12.8,30.47,North,355,0.0,0.0,33,0.00,,,0.00,Wunderground v.1.15,2013-01-20 05:03:00,
2013-01-19 22:04:00,39.4,12.6,30.47,North,355,0.0,0.0,33,0.00,,,0.00,Wunderground v.1.15,2013-01-20 05:04:00,
2013-01-19 22:07:00,39.1,13.1,30.48,North,355,0.0,0.0,34,0.00,,,0.00,Wunderground v.1.15,2013-01-20 05:07:00,
2013-01-19 22:13:00,38.9,12.9,30.48,North,355,0.0,0.0,34,0.00,,,0.00,Wunderground v.1.15,2013-01-20 05:13:00,
2013-01-19 22:19:00,38.6,12.6,30.47,North,355,0.0,0.0,34,0.00,,,0.00,Wunderground v.1.15,2013-01-20 05:19:00,
2013-01-19 22:25:00,38.8,12.8,30.47,North,355,0.0,0.0,34,0.00,,,0.00,Wunderground v.1.15,2013-01-20 05:25:00,
2013-01-19 22:31:00,38.9,12.9,30.47,North,355,0.0,0.0,34,0.00,,,0.00,Wunderground v.1.15,2013-01-20 05:31:00,
2013-01-19 22:36:00,38.3,12.3,30.47,North,355,0.0,0.0,34,0.00,,,0.00,Wunderground v.1.15,2013-01-20 05:36:00,
2013-01-19 22:42:00,37.7,11.8,30.47,North,355,0.0,0.0,34,0.00,,,0.00,Wunderground v.1.15,2013-01-20 05:42:00,
2013-01-19 22:47:00,37.0,11.8,30.47,North,355,0.0,0.0,35,0.00,,,0.00,Wunderground v.1.15,2013-01-20 05:47:00,
2013-01-19 22:53:00,36.2,11.8,30.47,North,355,0.0,0.0,36,0.00,,,0.00,Wunderground v.1.15,2013-01-20 05:53:00,
2013-01-19 22:59:00,33.9,10.3,30.47,North,355,0.0,0.0,37,0.00,,,0.00,Wunderground v.1.15,2013-01-20 05:59:00,
2013-01-19 23:04:00,33.2,10.9,30.47,North,355,0.0,0.0,39,0.00,,,0.00,Wunderground v.1.15,2013-01-20 06:04:00,
2013-01-19 23:10:00,32.9,11.2,30.47,North,355,0.0,0.0,40,0.00,,,0.00,Wunderground v.1.15,2013-01-20 06:10:00,
2013-01-19 23:16:00,33.3,11.5,30.46,North,355,0.0,0.0,40,0.00,,,0.00,Wunderground v.1.15,2013-01-20 06:16:00,
2013-01-19 23:22:00,32.8,11.1,30.46,North,355,0.0,0.0,40,0.00,,,0.00,Wunderground v.1.15,2013-01-20 06:22:00,
2013-01-19 23:27:00,32.4,11.3,30.47,North,355,0.0,0.0,41,0.00,,,0.00,Wunderground v.1.15,2013-01-20 06:27:00,
2013-01-19 23:33:00,32.0,11.5,30.46,North,355,0.0,0.0,42,0.00,,,0.00,Wunderground v.1.15,2013-01-20 06:33:00,
2013-01-19 23:39:00,31.7,11.2,30.47,North,355,0.0,0.0,42,0.00,,,0.00,Wunderground v.1.15,2013-01-20 06:39:00,
2013-01-19 23:44:00,31.5,11.5,30.47,North,355,0.0,0.0,43,0.00,,,0.00,Wunderground v.1.15,2013-01-20 06:44:00,
2013-01-19 23:50:00,30.6,10.7,30.47,North,355,0.0,0.0,43,0.00,,,0.00,Wunderground v.1.15,2013-01-20 06:50:00,
2013-01-19 23:56:00,30.1,10.3,30.47,North,355,0.0,0.0,43,0.00,,,0.00,Wunderground v.1.15,2013-01-20 06:56:00,